Time;durP1;ratioP1;P1;durP2;ratioP2;P2;SDS_P1;SDS_P2;PMS_P1;PMS_P2;Temp;Humidity;BMP_temperature;BMP_pressure;BME280_temperature;BME280_humidity;BME280_pressure;Samples;Min_cycle;Max_cycle;Signal;HPM_P1;HPM_P2
2022/05/21 00:00:25;;;;;;;17.43;16.80;;;23.40;90.20;;;;;;5071950;28;20450;-61
2022/05/21 00:02:52;;;;;;;16.80;16.30;;;23.40;90.20;;;;;;5059346;28;20970;-60
2022/05/21 00:05:21;;;;;;;15.93;15.33;;;23.40;90.20;;;;;;5051912;28;20471;-61
2022/05/21 00:07:48;;;;;;;17.97;17.40;;;23.40;90.20;;;;;;5051743;28;20444;-59
2022/05/21 00:10:17;;;;;;;16.93;16.43;;;23.40;90.20;;;;;;5051822;28;20452;-62
2022/05/21 00:12:45;;;;;;;16.73;16.23;;;23.40;90.30;;;;;;5062536;28;20486;-61
2022/05/21 00:15:17;;;;;;;17.37;16.77;;;23.40;90.30;;;;;;5071664;28;20791;-60
2022/05/21 00:17:43;;;;;;;15.90;15.40;;;23.40;90.30;;;;;;5071735;28;20465;-61
2022/05/21 00:20:47;;;;;;;16.13;15.63;;;23.40;90.20;;;;;;5071782;28;20807;-61
2022/05/21 00:23:11;;;;;;;17.57;17.03;;;23.40;90.30;;;;;;5057225;28;20526;-61
2022/05/21 00:25:38;;;;;;;18.00;17.50;;;23.40;90.30;;;;;;5051551;28;20819;-60
2022/05/21 00:28:05;;;;;;;17.57;17.00;;;23.40;90.30;;;;;;5051361;28;20935;-59
2022/05/21 00:30:33;;;;;;;17.37;16.87;;;23.40;90.30;;;;;;5051564;28;20452;-57
2022/05/21 00:33:00;;;;;;;17.23;16.73;;;23.40;90.30;;;;;;5064156;28;20479;-61
2022/05/21 00:35:28;;;;;;;16.30;15.80;;;23.40;90.30;;;;;;5071498;28;20821;-62
2022/05/21 00:37:55;;;;;;;17.23;16.73;;;23.40;90.30;;;;;;5071427;28;20532;-59
2022/05/21 00:40:22;;;;;;;16.57;16.07;;;23.40;90.20;;;;;;5071565;28;20447;-62
2022/05/21 00:42:49;;;;;;;15.80;15.30;;;23.40;90.30;;;;;;5060112;28;20474;-61
2022/05/21 00:45:16;;;;;;;16.47;15.97;;;23.40;90.30;;;;;;5051357;28;20464;-61
2022/05/21 00:47:45;;;;;;;15.73;15.23;;;23.40;90.20;;;;;;5051154;28;20817;-60
2022/05/21 00:50:15;;;;;;;16.43;15.93;;;23.40;90.20;;;;;;5051414;28;20436;-59
2022/05/21 00:52:42;;;;;;;15.60;15.20;;;23.40;90.20;;;;;;5063899;28;20479;-60
2022/05/21 00:55:13;;;;;;;16.43;15.93;;;23.40;90.20;;;;;;5075502;28;20983;-59
2022/05/21 00:57:44;;;;;;;16.20;15.70;;;23.40;90.20;;;;;;5075527;28;20508;-63
2022/05/21 01:00:14;;;;;;;15.37;14.87;;;23.40;90.30;;;;;;5072442;28;20721;-61
2022/05/21 01:02:49;;;;;;;15.57;15.10;;;23.40;90.30;;;;;;5055479;28;20432;-60
2022/05/21 01:05:18;;;;;;;15.70;15.23;;;23.40;90.20;;;;;;5055360;28;20463;-62
2022/05/21 01:07:47;;;;;;;15.63;15.23;;;23.40;90.20;;;;;;5055088;28;20883;-60
2022/05/21 01:10:18;;;;;;;15.63;15.13;;;23.30;90.10;;;;;;5056400;28;20455;-59
2022/05/21 01:12:48;;;;;;;16.53;16.03;;;23.30;90.10;;;;;;5062625;28;20519;-59
2022/05/21 01:15:19;;;;;;;15.97;15.50;;;23.30;90.10;;;;;;5075157;28;20470;-62
2022/05/21 01:17:47;;;;;;;16.13;15.63;;;23.30;90.10;;;;;;5074839;28;20946;-61
2022/05/21 01:20:18;;;;;;;15.00;14.60;;;23.30;90.10;;;;;;5072146;28;20442;-62
2022/05/21 01:22:48;;;;;;;15.40;15.00;;;23.30;90.10;;;;;;5055126;28;20775;-63
2022/05/21 01:25:17;;;;;;;15.60;15.10;;;23.30;90.10;;;;;;5054882;28;20808;-63
2022/05/21 01:27:45;;;;;;;15.37;14.97;;;23.30;90.10;;;;;;5054751;28;20482;-63
2022/05/21 01:30:16;;;;;;;15.70;15.10;;;23.30;90.00;;;;;;5056738;28;20818;-63
2022/05/21 01:32:45;;;;;;;16.40;15.80;;;23.30;90.00;;;;;;5074826;28;20482;-59
2022/05/21 01:35:12;;;;;;;15.93;15.43;;;23.30;90.00;;;;;;5074774;28;20459;-62
2022/05/21 01:37:39;;;;;;;15.20;14.70;;;23.30;90.00;;;;;;5074612;28;20447;-57
2022/05/21 01:40:09;;;;;;;15.53;14.90;;;23.30;90.00;;;;;;5073403;28;21558;-60
2022/05/21 01:42:36;;;;;;;14.90;14.50;;;23.30;89.90;;;;;;5056047;28;20448;-61
2022/05/21 01:45:02;;;;;;;15.20;14.80;;;23.30;89.80;;;;;;5054519;28;20464;-61
2022/05/21 01:47:31;;;;;;;15.33;14.93;;;23.30;89.90;;;;;;5054398;28;20527;-62
2022/05/21 01:49:58;;;;;;;15.73;15.23;;;23.30;89.80;;;;;;5054511;28;20450;-62
2022/05/21 01:52:26;;;;;;;15.33;14.83;;;23.30;89.70;;;;;;5073891;28;20483;-63
2022/05/21 01:54:52;;;;;;;15.87;15.43;;;23.30;89.70;;;;;;5074354;28;20460;-61
2022/05/21 01:57:21;;;;;;;16.03;15.60;;;23.30;89.60;;;;;;5074228;28;20447;-62
2022/05/21 01:59:48;;;;;;;16.00;15.50;;;23.30;89.60;;;;;;5074306;28;20808;-63
2022/05/21 02:02:15;;;;;;;16.83;16.33;;;23.30;89.60;;;;;;5055472;28;20448;-63
2022/05/21 02:04:41;;;;;;;16.10;15.60;;;23.30;89.60;;;;;;5068205;28;20512;-62
2022/05/21 02:07:08;;;;;;;20.40;19.80;;;23.30;89.60;;;;;;5074027;28;20813;-62
2022/05/21 02:09:35;;;;;;;16.67;16.03;;;23.30;89.50;;;;;;5074124;28;20443;-63
2022/05/21 02:12:02;;;;;;;14.67;14.27;;;23.20;89.40;;;;;;5057838;28;20491;-62
2022/05/21 02:14:30;;;;;;;16.57;16.07;;;23.20;89.30;;;;;;5054021;28;20472;-62
2022/05/21 02:16:57;;;;;;;16.63;16.13;;;23.30;89.40;;;;;;5053894;28;20452;-63
2022/05/21 02:19:23;;;;;;;16.13;15.63;;;23.30;89.40;;;;;;5053941;28;20447;-62
2022/05/21 02:21:50;;;;;;;15.63;15.10;;;23.20;89.20;;;;;;5067926;28;20809;-61
2022/05/21 02:24:17;;;;;;;15.70;15.20;;;23.20;89.20;;;;;;5071986;28;20992;-63
2022/05/21 02:26:44;;;;;;;15.83;15.33;;;23.20;89.10;;;;;;5073865;28;20518;-58
2022/05/21 02:29:10;;;;;;;16.63;16.03;;;23.20;89.00;;;;;;5073845;28;20447;-62
2022/05/21 02:31:39;;;;;;;15.30;14.90;;;23.20;89.00;;;;;;5061274;28;20523;-61
2022/05/21 02:34:05;;;;;;;15.23;14.83;;;23.20;88.90;;;;;;5053703;28;20440;-61
2022/05/21 02:39:29;;;;;;;15.10;14.70;;;23.20;88.80;;;;;;5053814;28;20467;-60
2022/05/21 02:41:56;;;;;;;16.73;16.23;;;23.20;88.90;;;;;;5067821;28;20505;-60
2022/05/21 02:44:23;;;;;;;16.60;16.00;;;23.20;88.80;;;;;;5073469;28;20451;-62
2022/05/21 02:46:51;;;;;;;15.43;15.03;;;23.20;88.80;;;;;;5073337;28;20812;-61
2022/05/21 02:49:18;;;;;;;15.77;15.27;;;23.20;88.70;;;;;;5073348;28;20448;-60
2022/05/21 02:51:45;;;;;;;16.23;15.73;;;23.20;88.60;;;;;;5072596;28;20482;-61
2022/05/21 02:54:14;;;;;;;16.40;15.90;;;23.20;88.40;;;;;;5073275;28;20452;-60
2022/05/21 02:56:44;;;;;;;16.57;16.07;;;23.20;88.40;;;;;;5073287;28;20447;-60
2022/05/21 02:59:11;;;;;;;17.03;16.53;;;23.20;88.40;;;;;;5073274;28;20443;-59
2022/05/21 03:01:38;;;;;;;16.53;16.03;;;23.20;88.40;;;;;;5061377;28;20448;-62
2022/05/21 03:04:07;;;;;;;16.30;15.80;;;23.20;88.30;;;;;;5053122;28;20444;-62
2022/05/21 03:06:34;;;;;;;16.17;15.67;;;23.10;88.00;;;;;;5053159;28;20939;-62
2022/05/21 03:11:45;;;;;;;16.50;16.00;;;23.10;87.90;;;;;;5072991;28;20501;-62
2022/05/21 03:14:12;;;;;;;16.80;16.10;;;23.10;87.70;;;;;;5071998;28;20443;-62
2022/05/21 03:16:39;;;;;;;16.80;16.27;;;23.10;87.70;;;;;;5072858;28;20809;-63
2022/05/21 03:19:07;;;;;;;17.80;17.17;;;23.10;87.60;;;;;;5068480;28;20882;-62
2022/05/21 03:21:33;;;;;;;15.93;15.43;;;23.10;87.60;;;;;;5061000;28;21102;-61
2022/05/21 03:24:00;;;;;;;16.03;15.43;;;23.10;87.50;;;;;;5072791;28;20450;-60
2022/05/21 03:26:27;;;;;;;15.73;15.23;;;23.10;87.50;;;;;;5072527;28;20821;-60
2022/05/21 03:28:54;;;;;;;16.10;15.60;;;23.10;87.40;;;;;;5070087;28;20443;-62
2022/05/21 03:31:20;;;;;;;23.03;22.30;;;23.10;87.30;;;;;;5052605;28;20452;-63
2022/05/21 03:33:47;;;;;;;16.27;15.67;;;23.10;87.30;;;;;;5052489;28;20479;-60
2022/05/21 03:36:15;;;;;;;15.07;14.67;;;23.10;87.20;;;;;;5052477;28;20472;-63
2022/05/21 03:38:42;;;;;;;16.63;16.13;;;23.10;87.10;;;;;;5052322;28;20494;-62
2022/05/21 03:41:09;;;;;;;16.17;15.67;;;23.10;86.90;;;;;;5052386;28;20536;-62
2022/05/21 03:43:36;;;;;;;15.70;15.30;;;23.10;86.90;;;;;;5052473;28;20445;-60
2022/05/21 03:46:04;;;;;;;16.40;15.90;;;23.10;86.80;;;;;;5052209;28;20885;-61
2022/05/21 03:48:31;;;;;;;15.80;15.30;;;23.10;86.70;;;;;;5052087;28;20514;-62
2022/05/21 03:50:58;;;;;;;15.20;14.70;;;23.10;86.60;;;;;;5052052;28;20455;-60
2022/05/21 03:53:26;;;;;;;15.50;15.00;;;23.10;86.50;;;;;;5052162;28;21161;-62
2022/05/21 03:55:53;;;;;;;16.80;16.30;;;23.10;86.60;;;;;;5052142;28;20829;-63
2022/05/21 03:58:20;;;;;;;17.00;16.40;;;23.00;86.30;;;;;;5051913;28;20486;-63
2022/05/21 04:00:48;;;;;;;17.07;16.57;;;23.00;86.20;;;;;;5051707;28;20444;-63
2022/05/21 04:03:15;;;;;;;16.60;16.10;;;23.00;86.20;;;;;;5052061;28;20527;-64
2022/05/21 04:05:41;;;;;;;17.50;17.00;;;23.00;86.20;;;;;;5051969;28;20471;-63
2022/05/21 04:08:08;;;;;;;15.97;15.47;;;23.00;86.20;;;;;;5051757;28;20448;-61
2022/05/21 04:10:37;;;;;;;19.77;19.20;;;23.00;86.00;;;;;;5051826;28;20455;-62
2022/05/21 04:13:03;;;;;;;17.23;16.73;;;23.00;85.80;;;;;;5051472;28;20491;-63
2022/05/21 04:15:31;;;;;;;16.37;15.87;;;23.00;85.60;;;;;;5051782;28;20543;-63
2022/05/21 04:17:58;;;;;;;16.60;16.10;;;23.00;85.50;;;;;;5051584;28;20935;-62
2022/05/21 04:20:25;;;;;;;16.33;15.83;;;23.00;85.50;;;;;;5051543;28;20448;-61
2022/05/21 04:22:52;;;;;;;17.30;16.80;;;23.00;85.40;;;;;;5051683;28;20822;-62
2022/05/21 04:25:19;;;;;;;16.97;16.37;;;22.90;85.20;;;;;;5051944;28;20487;-58
2022/05/21 04:27:48;;;;;;;16.73;16.23;;;23.00;85.20;;;;;;5051377;28;20447;-60
2022/05/21 04:30:17;;;;;;;16.87;16.37;;;22.90;85.00;;;;;;5051043;28;20448;-60
2022/05/21 04:32:44;;;;;;;16.73;16.23;;;22.90;84.90;;;;;;5050720;28;20477;-62
2022/05/21 04:35:12;;;;;;;16.00;15.50;;;23.00;85.00;;;;;;5051522;28;20463;-61
2022/05/21 04:37:40;;;;;;;16.77;16.17;;;22.90;84.70;;;;;;5051300;28;20455;-59
2022/05/21 04:40:10;;;;;;;16.90;16.30;;;22.90;84.70;;;;;;5051214;28;20804;-62
2022/05/21 04:42:37;;;;;;;15.90;15.50;;;22.90;84.60;;;;;;5051456;28;20958;-61
2022/05/21 04:45:06;;;;;;;16.60;16.10;;;22.90;84.50;;;;;;5051344;28;20508;-60
2022/05/21 04:47:34;;;;;;;17.27;16.67;;;22.90;84.40;;;;;;5051231;28;20927;-60
2022/05/21 04:50:00;;;;;;;16.20;15.60;;;22.90;84.30;;;;;;5050910;28;20441;-62
2022/05/21 04:52:27;;;;;;;15.70;15.20;;;22.90;84.20;;;;;;5051300;28;20484;-62
2022/05/21 04:54:54;;;;;;;15.73;15.33;;;22.90;84.30;;;;;;5051328;28;20475;-63
2022/05/21 04:57:21;;;;;;;16.20;15.60;;;22.90;84.20;;;;;;5051164;28;20455;-55
2022/05/21 04:59:48;;;;;;;17.77;17.17;;;22.90;84.10;;;;;;5050890;28;20477;-70
2022/05/21 05:02:16;;;;;;;17.00;16.40;;;23.00;83.90;;;;;;5051260;28;20448;-70
2022/05/21 05:04:43;;;;;;;17.73;17.23;;;23.00;83.40;;;;;;5051275;28;20816;-68
2022/05/21 05:07:11;;;;;;;17.30;16.40;;;22.90;83.00;;;;;;5052147;28;20475;-65
2022/05/21 05:09:41;;;;;;;17.80;17.00;;;23.00;83.00;;;;;;5051727;28;20455;-66
2022/05/21 05:12:09;;;;;;;17.17;16.57;;;23.00;82.80;;;;;;5051723;28;20447;-65
2022/05/21 05:14:36;;;;;;;17.57;16.97;;;22.90;82.60;;;;;;5051844;28;20460;-65
2022/05/21 05:17:03;;;;;;;18.13;17.53;;;22.90;82.30;;;;;;5051760;28;20454;-65
2022/05/21 05:19:33;;;;;;;17.90;17.30;;;22.80;82.40;;;;;;5051607;28;20498;-63
2022/05/21 05:22:00;;;;;;;19.00;18.20;;;22.90;83.00;;;;;;5051493;28;20448;-60
2022/05/21 05:24:27;;;;;;;20.10;19.30;;;23.00;83.10;;;;;;5051097;28;20432;-65
2022/05/21 05:26:53;;;;;;;19.00;18.10;;;23.00;83.40;;;;;;5051359;28;20972;-63
2022/05/21 05:29:21;;;;;;;20.60;19.90;;;23.00;82.20;;;;;;5052250;28;20669;-54
2022/05/21 05:31:47;;;;;;;22.70;21.57;;;23.10;81.30;;;;;;5052892;28;20502;-60
2022/05/21 05:34:14;;;;;;;22.20;21.33;;;23.00;80.90;;;;;;5052135;28;20503;-58
2022/05/21 05:36:42;;;;;;;22.03;21.23;;;23.00;81.10;;;;;;5052184;28;20715;-62
2022/05/21 05:39:10;;;;;;;22.50;21.70;;;22.90;81.00;;;;;;5055029;28;20978;-57
2022/05/21 05:41:38;;;;;;;21.57;20.87;;;22.90;81.00;;;;;;5055543;28;20444;-58
2022/05/21 05:44:05;;;;;;;21.73;20.93;;;22.90;81.40;;;;;;5055696;28;20450;-57
2022/05/21 05:46:32;;;;;;;22.00;21.10;;;23.00;80.90;;;;;;5055948;28;20494;-60
2022/05/21 05:48:59;;;;;;;23.60;22.60;;;23.00;80.30;;;;;;5054763;28;20455;-60
2022/05/21 05:51:27;;;;;;;21.17;20.37;;;23.00;80.10;;;;;;5054705;28;20471;-57
2022/05/21 05:53:55;;;;;;;22.63;21.83;;;23.00;80.10;;;;;;5054614;28;20993;-64
2022/05/21 05:56:22;;;;;;;23.23;22.20;;;22.90;80.10;;;;;;5054664;28;20827;-64
2022/05/21 06:01:34;;;;;;;23.53;22.60;;;22.90;80.20;;;;;;5054462;28;20448;-58
2022/05/21 06:04:01;;;;;;;21.90;21.10;;;22.90;80.10;;;;;;5054262;28;20447;-62
2022/05/21 06:06:28;;;;;;;22.53;21.63;;;22.90;80.10;;;;;;5054233;28;20471;-59
2022/05/21 06:08:56;;;;;;;23.13;22.27;;;22.90;79.90;;;;;;5053781;28;20444;-65
2022/05/21 06:11:23;;;;;;;22.23;21.37;;;22.90;79.70;;;;;;5054197;28;20943;-60
2022/05/21 06:13:50;;;;;;;22.40;21.60;;;22.90;80.50;;;;;;5054217;28;20476;-61
2022/05/21 06:16:17;;;;;;;21.77;20.97;;;23.00;80.10;;;;;;5054074;28;20471;-63
2022/05/21 06:18:44;;;;;;;23.30;22.23;;;23.00;79.90;;;;;;5053621;28;20867;-63
2022/05/21 06:21:11;;;;;;;23.27;22.20;;;22.90;79.70;;;;;;5053905;28;20919;-62
2022/05/21 06:23:38;;;;;;;22.60;21.80;;;22.90;79.40;;;;;;5053894;28;20441;-61
2022/05/21 06:26:09;;;;;;;20.83;20.07;;;22.90;79.20;;;;;;5053633;28;20852;-63
2022/05/21 06:28:35;;;;;;;21.90;21.00;;;22.90;79.10;;;;;;5053671;28;20464;-63
2022/05/21 06:31:02;;;;;;;20.27;19.37;;;22.90;79.20;;;;;;5053959;28;20924;-62
2022/05/21 06:33:31;;;;;;;20.30;19.40;;;22.90;79.20;;;;;;5053702;28;20480;-61
2022/05/21 06:36:06;;;;;;;21.17;20.30;;;22.90;79.10;;;;;;5053762;28;20460;-62
2022/05/21 06:38:34;;;;;;;21.90;21.00;;;22.90;79.20;;;;;;5053322;28;20452;-63
2022/05/21 06:41:01;;;;;;;20.97;20.17;;;22.90;79.20;;;;;;5053782;28;20448;-61
2022/05/21 06:43:29;;;;;;;20.50;19.80;;;22.90;79.20;;;;;;5053732;28;20444;-60
2022/05/21 06:45:56;;;;;;;20.67;19.77;;;22.90;79.20;;;;;;5053694;28;20460;-60
2022/05/21 06:48:23;;;;;;;19.43;18.57;;;22.90;79.00;;;;;;5052870;28;20531;-61
2022/05/21 06:50:50;;;;;;;21.47;20.67;;;23.00;79.20;;;;;;5053081;28;20439;-67
2022/05/21 06:53:18;;;;;;;22.10;21.27;;;22.90;78.90;;;;;;5053709;28;20484;-66
2022/05/21 06:55:45;;;;;;;21.50;20.70;;;22.90;78.90;;;;;;5053525;28;20506;-70
2022/05/21 06:58:12;;;;;;;22.07;20.57;;;22.90;78.90;;;;;;5054084;28;20483;-66
2022/05/21 07:00:41;;;;;;;23.20;22.30;;;22.90;79.10;;;;;;5053572;28;20539;-59
2022/05/21 07:03:07;;;;;;;20.87;20.07;;;22.90;78.90;;;;;;5056430;28;20788;-59
2022/05/21 07:08:22;;;;;;;20.77;19.67;;;22.90;78.70;;;;;;5055139;28;20439;-60
2022/05/21 07:10:49;;;;;;;19.17;18.57;;;22.90;79.60;;;;;;5073509;28;20475;-60
2022/05/21 07:13:16;;;;;;;21.30;20.53;;;22.90;78.90;;;;;;5073149;28;20513;-60
2022/05/21 07:15:47;;;;;;;20.80;19.93;;;22.90;78.90;;;;;;5072926;28;20470;-61
2022/05/21 07:18:18;;;;;;;20.10;19.30;;;22.90;79.00;;;;;;5071371;28;20829;-62
2022/05/21 07:20:46;;;;;;;19.80;19.20;;;22.90;79.00;;;;;;5053511;28;20444;-62
2022/05/21 07:23:14;;;;;;;20.70;19.87;;;22.90;79.00;;;;;;5053517;28;20796;-63
2022/05/21 07:25:41;;;;;;;20.80;20.07;;;23.00;79.00;;;;;;5053184;28;20867;-64
2022/05/21 07:28:09;;;;;;;20.40;19.60;;;23.00;78.70;;;;;;5054426;28;20445;-66
2022/05/21 07:30:37;;;;;;;20.10;19.30;;;23.00;78.80;;;;;;5062753;28;20458;-68
2022/05/21 07:33:09;;;;;;;19.45;18.55;;;22.90;78.60;;;;;;5072559;28;20438;-65
2022/05/21 07:35:37;;;;;;;21.40;20.40;;;22.90;79.30;;;;;;5072789;28;20227;-65
2022/05/21 07:38:05;;;;;;;22.27;21.50;;;23.00;78.90;;;;;;5059109;28;20490;-65
2022/05/21 07:40:32;;;;;;;21.03;20.03;;;23.00;78.80;;;;;;5052751;28;20977;-63
2022/05/21 07:42:59;;;;;;;21.17;20.37;;;23.10;78.40;;;;;;5052651;28;20867;-63
2022/05/21 07:45:26;;;;;;;20.20;19.50;;;23.10;78.40;;;;;;5052815;28;20467;-61
2022/05/21 07:47:53;;;;;;;20.20;19.50;;;23.10;78.50;;;;;;5052919;28;20804;-65
2022/05/21 07:50:23;;;;;;;22.40;21.60;;;23.10;78.70;;;;;;5053172;28;20475;-66
2022/05/21 07:52:50;;;;;;;22.20;21.30;;;23.10;78.20;;;;;;5052784;28;20823;-65
2022/05/21 07:55:17;;;;;;;20.23;19.60;;;23.00;78.20;;;;;;5052675;28;20908;-64
2022/05/21 07:57:44;;;;;;;21.50;20.43;;;23.00;78.00;;;;;;5052536;28;20484;-64
2022/05/21 08:00:17;;;;;;;22.47;21.57;;;22.90;77.80;;;;;;5052502;28;20502;-64
2022/05/21 08:02:44;;;;;;;35.00;33.25;;;22.90;77.90;;;;;;5052945;28;20443;-58
2022/05/21 08:05:11;;;;;;;37.03;35.43;;;23.00;79.60;;;;;;5052542;28;20240;-57
2022/05/21 08:07:40;;;;;;;3.17;2.88;;;23.10;77.30;;;;;;5051164;28;20443;-65
2022/05/21 08:10:08;;;;;;;4.13;3.83;;;23.10;77.60;;;;;;5052304;28;20201;-63
2022/05/21 08:12:35;;;;;;;3.43;3.27;;;23.10;77.10;;;;;;5056653;28;20471;-62
2022/05/21 08:15:02;;;;;;;3.40;3.20;;;23.00;76.80;;;;;;5072634;28;20561;-63
2022/05/21 08:17:29;;;;;;;3.33;3.03;;;23.00;76.90;;;;;;5071968;28;20443;-64
2022/05/21 08:19:55;;;;;;;4.10;3.80;;;22.90;76.90;;;;;;5071843;28;20443;-64
2022/05/21 08:27:53;;;;;;;4.20;4.00;;;22.90;77.30;;;;;;5051578;28;20502;-64
2022/05/21 08:30:20;;;;;;;6.63;4.17;;;22.90;77.40;;;;;;5064690;28;20447;-63
2022/05/21 08:32:47;;;;;;;3.90;3.70;;;22.80;77.40;;;;;;5072067;28;20451;-64
2022/05/21 08:35:13;;;;;;;5.50;3.73;;;22.90;77.60;;;;;;5071724;28;20491;-64
2022/05/21 08:37:40;;;;;;;3.30;3.10;;;22.90;77.50;;;;;;5071575;28;20470;-64
2022/05/21 08:40:15;;;;;;;3.87;3.47;;;22.80;77.30;;;;;;5060218;28;20483;-65
2022/05/21 08:42:49;;;;;;;3.47;3.30;;;22.80;77.30;;;;;;5051674;28;20781;-64
2022/05/21 08:45:20;;;;;;;5.53;3.83;;;22.80;77.30;;;;;;5051657;28;20463;-64
2022/05/21 08:47:52;;;;;;;5.00;4.30;;;22.90;77.20;;;;;;5051653;28;20479;-71
2022/05/21 08:50:21;;;;;;;3.47;3.37;;;23.00;77.50;;;;;;5052173;28;20488;-69
2022/05/21 08:52:58;;;;;;;3.67;3.47;;;23.00;77.70;;;;;;5062577;28;20447;-72
2022/05/21 08:55:31;;;;;;;3.77;3.47;;;23.00;77.50;;;;;;5071892;28;20514;-70
2022/05/21 08:58:02;;;;;;;4.60;3.67;;;23.00;77.60;;;;;;5072165;28;20454;-73
2022/05/21 09:00:34;;;;;;;3.50;3.30;;;23.00;77.50;;;;;;5072402;28;20439;-71
2022/05/21 09:03:01;;;;;;;3.83;3.63;;;23.10;77.60;;;;;;5071218;28;20448;-63
2022/05/21 09:05:28;;;;;;;3.05;2.85;;;23.10;77.80;;;;;;5071027;28;20436;-59
2022/05/21 09:08:04;;;;;;;3.70;3.40;;;23.00;78.00;;;;;;5071021;28;20197;-58
2022/05/21 09:10:43;;;;;;;3.23;3.03;;;23.00;77.80;;;;;;5071691;28;20435;-70
2022/05/21 09:13:16;;;;;;;6.03;4.53;;;23.10;78.00;;;;;;5074018;28;20885;-66
2022/05/21 09:18:31;;;;;;;3.80;3.50;;;23.10;78.40;;;;;;5055821;28;20423;-66
2022/05/21 09:21:01;;;;;;;3.30;3.00;;;23.20;78.10;;;;;;5055672;28;20984;-64
2022/05/21 09:23:47;;;;;;;7.80;5.40;;;23.20;78.60;;;;;;5053930;28;20934;-62
2022/05/21 09:26:15;;;;;;;6.90;4.27;;;23.20;78.10;;;;;;5055004;28;20240;-59
2022/05/21 09:28:42;;;;;;;7.90;5.67;;;23.30;78.00;;;;;;5069885;28;20449;-63
2022/05/21 09:31:10;;;;;;;5.93;4.83;;;23.40;78.10;;;;;;5075236;28;20439;-62
2022/05/21 09:33:40;;;;;;;4.60;4.20;;;23.40;78.70;;;;;;5074916;28;20448;-63
2022/05/21 09:36:07;;;;;;;5.40;4.40;;;23.50;78.10;;;;;;5074222;28;20442;-66
2022/05/21 09:38:38;;;;;;;5.50;5.10;;;23.50;78.30;;;;;;5074529;28;20208;-63
2022/05/21 09:41:12;;;;;;;5.40;4.90;;;23.40;78.40;;;;;;5055089;28;20448;-65
2022/05/21 09:46:35;;;;;;;8.30;5.07;;;23.40;80.00;;;;;;5054874;28;20510;-64
2022/05/21 09:49:22;;;;;;;4.47;3.90;;;23.40;81.60;;;;;;5054719;28;20943;-68
2022/05/21 09:51:57;;;;;;;7.03;4.20;;;23.30;82.30;;;;;;5064435;28;20447;-65
2022/05/21 09:54:27;;;;;;;5.50;4.73;;;23.40;83.00;;;;;;5074063;28;20509;-62
2022/05/21 09:56:55;;;;;;;5.63;5.10;;;23.40;83.70;;;;;;5074737;28;20438;-61
2022/05/21 09:59:25;;;;;;;6.67;5.47;;;23.40;84.00;;;;;;5074690;28;20973;-58
2022/05/21 10:01:56;;;;;;;5.00;4.60;;;23.40;84.00;;;;;;5074937;28;20957;-64
2022/05/21 10:04:28;;;;;;;8.40;7.80;;;23.50;83.40;;;;;;5059553;28;20530;-63
2022/05/21 10:06:59;;;;;;;7.67;7.17;;;23.50;83.00;;;;;;5054942;28;20444;-65
2022/05/21 10:12:24;;;;;;;12.40;11.80;;;23.50;83.20;;;;;;5054958;28;20423;-67
2022/05/21 10:15:00;;;;;;;10.75;9.95;;;23.50;83.20;;;;;;5056409;28;20451;-66
2022/05/21 10:17:31;;;;;;;13.10;12.20;;;23.50;83.40;;;;;;5074811;28;20586;-66
2022/05/21 10:20:14;;;;;;;13.40;12.60;;;23.50;83.20;;;;;;5074725;28;20438;-65
2022/05/21 10:22:48;;;;;;;13.30;12.50;;;23.50;83.00;;;;;;5074592;28;20450;-67
2022/05/21 10:25:18;;;;;;;11.32;10.23;;;23.60;83.60;;;;;;5054293;28;20436;-63
2022/05/21 10:28:11;;;;;;;12.30;11.57;;;23.70;83.20;;;;;;5053776;28;20213;-59
2022/05/21 10:30:58;;;;;;;11.87;11.07;;;23.70;83.50;;;;;;5053977;28;20446;-52
2022/05/21 10:33:50;;;;;;;11.33;10.63;;;23.70;83.60;;;;;;5056293;28;20443;-54
2022/05/21 10:36:29;;;;;;;12.30;11.37;;;23.70;84.40;;;;;;5053971;28;20996;-51
2022/05/21 10:39:11;;;;;;;10.80;10.00;;;23.60;84.60;;;;;;5053649;28;20811;-52
2022/05/21 10:42:03;;;;;;;10.90;10.30;;;23.60;85.30;;;;;;5053864;28;20436;-49
2022/05/21 10:44:45;;;;;;;10.87;10.20;;;23.70;85.40;;;;;;5053172;28;20574;-52
2022/05/21 10:47:40;;;;;;;10.17;9.40;;;23.60;85.30;;;;;;5069984;28;20443;-54
2022/05/21 10:50:27;;;;;;;10.27;9.70;;;23.70;85.40;;;;;;5073500;28;20950;-56
2022/05/21 10:53:27;;;;;;;10.70;10.20;;;23.60;85.10;;;;;;5073528;28;20443;-60
2022/05/21 10:56:02;;;;;;;10.27;9.77;;;23.60;84.80;;;;;;5073173;28;20483;-60
2022/05/21 10:58:40;;;;;;;9.70;9.20;;;23.60;84.90;;;;;;5064028;28;20452;-59
2022/05/21 11:01:14;;;;;;;10.95;10.00;;;23.70;84.70;;;;;;5053388;28;20444;-63
2022/05/21 11:04:00;;;;;;;9.10;8.70;;;23.60;84.80;;;;;;5053198;28;20202;-59
2022/05/21 11:06:43;;;;;;;10.07;9.47;;;23.70;84.70;;;;;;5053166;28;20521;-62
2022/05/21 11:09:21;;;;;;;10.47;9.57;;;23.70;84.60;;;;;;5052936;28;20452;-63
2022/05/21 11:11:58;;;;;;;10.17;9.47;;;23.60;84.40;;;;;;5066868;28;20443;-63
2022/05/21 11:14:32;;;;;;;10.50;10.00;;;23.70;84.50;;;;;;5072873;28;20904;-63
2022/05/21 11:17:11;;;;;;;9.80;9.40;;;23.70;84.10;;;;;;5072815;28;20453;-62
2022/05/21 11:19:45;;;;;;;9.57;9.17;;;23.60;83.80;;;;;;5072837;28;20447;-62
2022/05/21 11:22:17;;;;;;;10.10;9.60;;;23.70;83.70;;;;;;5066662;28;20502;-59
2022/05/21 11:24:51;;;;;;;9.57;9.07;;;23.70;84.50;;;;;;5070914;28;20471;-64
2022/05/21 11:27:23;;;;;;;12.80;10.10;;;23.70;83.70;;;;;;5072698;28;20500;-60
2022/05/21 11:29:54;;;;;;;8.90;8.60;;;23.70;83.50;;;;;;5072620;28;20444;-63
2022/05/21 11:38:04;;;;;;;9.50;9.10;;;23.60;83.00;;;;;;5072495;28;20508;-62
2022/05/21 11:40:51;;;;;;;8.93;8.63;;;23.60;83.40;;;;;;5073441;28;20443;-62
2022/05/21 11:43:18;;;;;;;9.10;8.80;;;23.60;83.20;;;;;;5063717;28;20440;-62
2022/05/21 11:46:00;;;;;;;9.20;8.90;;;23.60;83.40;;;;;;5058090;28;20474;-62
2022/05/21 11:48:30;;;;;;;9.03;8.67;;;23.50;83.30;;;;;;5073066;28;20788;-63
2022/05/21 11:51:25;;;;;;;9.47;9.00;;;23.50;83.40;;;;;;5073186;28;20443;-63
2022/05/21 11:53:52;;;;;;;9.40;9.10;;;23.50;83.50;;;;;;5058871;28;20436;-63
2022/05/21 11:56:19;;;;;;;7.90;7.70;;;23.50;83.50;;;;;;5053058;28;20475;-62
2022/05/21 11:59:24;;;;;;;9.13;8.77;;;23.50;83.10;;;;;;5052579;28;20448;-63
2022/05/21 12:02:17;;;;;;;8.57;8.17;;;23.50;83.10;;;;;;5053399;28;20440;-64
2022/05/21 12:04:54;;;;;;;8.83;8.43;;;23.50;83.10;;;;;;5052479;28;20900;-62
2022/05/21 12:08:03;;;;;;;7.97;7.73;;;23.50;82.80;;;;;;5072700;28;20439;-63
2022/05/21 12:10:52;;;;;;;8.00;7.80;;;23.50;82.60;;;;;;5073046;28;20450;-62
2022/05/21 12:13:40;;;;;;;9.63;9.13;;;23.40;82.10;;;;;;5073275;28;20445;-64
2022/05/21 12:16:42;;;;;;;8.20;7.90;;;23.40;82.00;;;;;;5070376;28;20519;-63
2022/05/21 12:19:09;;;;;;;8.90;8.60;;;23.40;82.10;;;;;;5052806;28;20447;-63
2022/05/21 12:22:01;;;;;;;9.20;8.80;;;23.40;82.10;;;;;;5052906;28;20460;-63
2022/05/21 12:24:37;;;;;;;8.77;8.47;;;23.40;82.20;;;;;;5049375;28;20453;-62
2022/05/21 12:27:14;;;;;;;8.23;7.73;;;23.40;82.20;;;;;;5052257;28;20436;-64
2022/05/21 12:29:45;;;;;;;8.83;8.60;;;23.40;81.90;;;;;;5052339;28;20440;-64
2022/05/21 12:32:16;;;;;;;8.73;8.33;;;23.50;82.30;;;;;;5052290;28;20436;-62
2022/05/21 12:35:12;;;;;;;8.97;8.67;;;23.50;82.00;;;;;;5056005;28;20506;-62
2022/05/21 12:37:41;;;;;;;8.57;8.17;;;23.50;81.90;;;;;;5071799;28;20473;-63
2022/05/21 12:40:18;;;;;;;8.47;8.20;;;23.50;82.20;;;;;;5072271;28;20518;-63
2022/05/21 12:42:49;;;;;;;9.30;8.90;;;23.50;82.40;;;;;;5070876;28;20447;-62
2022/05/21 12:45:33;;;;;;;8.13;7.83;;;23.50;82.60;;;;;;5052706;28;20476;-63
2022/05/21 12:48:07;;;;;;;8.40;8.00;;;23.50;82.70;;;;;;5052080;28;20478;-63
2022/05/21 12:50:35;;;;;;;8.07;7.53;;;23.50;82.60;;;;;;5052533;28;20457;-63
2022/05/21 12:53:04;;;;;;;8.27;8.00;;;23.50;82.40;;;;;;5055765;28;20447;-63
2022/05/21 12:55:33;;;;;;;7.90;7.70;;;23.50;82.40;;;;;;5072495;28;20570;-61
2022/05/21 12:58:19;;;;;;;9.33;9.03;;;23.40;82.20;;;;;;5071960;28;20447;-63
2022/05/21 13:00:51;;;;;;;8.60;8.30;;;23.40;82.20;;;;;;5072267;28;20489;-63
2022/05/21 13:03:19;;;;;;;8.83;8.53;;;23.50;82.30;;;;;;5066809;28;20448;-63
2022/05/21 13:05:52;;;;;;;7.37;7.10;;;23.40;82.20;;;;;;5052410;28;20486;-63
2022/05/21 13:08:20;;;;;;;9.20;8.73;;;23.50;82.20;;;;;;5052248;28;20924;-63
2022/05/21 13:10:59;;;;;;;8.40;8.10;;;23.50;82.30;;;;;;5051689;28;20444;-58
2022/05/21 13:13:29;;;;;;;8.10;7.80;;;23.50;82.20;;;;;;5057774;28;20447;-57
2022/05/21 13:15:58;;;;;;;8.83;8.47;;;23.40;82.30;;;;;;5071016;28;20837;-58
2022/05/21 13:18:36;;;;;;;8.03;7.77;;;23.50;82.60;;;;;;5071014;28;20988;-58
2022/05/21 13:21:12;;;;;;;8.87;8.47;;;23.40;82.30;;;;;;5071336;28;20517;-60